createdAt,value
2017-11-06T00:00:31.210Z,997.50
2017-11-06T00:01:31.241Z,997.49
2017-11-06T00:02:31.270Z,997.50
2017-11-06T00:03:31.300Z,997.45
2017-11-06T00:04:31.330Z,997.53
2017-11-06T00:05:31.360Z,997.55
2017-11-06T00:06:31.389Z,997.54
2017-11-06T00:07:31.418Z,997.56
2017-11-06T00:08:31.447Z,997.58
2017-11-06T00:09:31.477Z,997.59
2017-11-06T00:10:31.508Z,997.60
2017-11-06T00:11:31.537Z,997.62
2017-11-06T00:12:31.567Z,997.66
2017-11-06T00:13:31.596Z,997.63
2017-11-06T00:14:31.626Z,997.66
2017-11-06T00:15:31.656Z,997.71
2017-11-06T00:16:31.684Z,997.78
2017-11-06T00:17:31.714Z,997.75
2017-11-06T00:18:31.744Z,997.83
2017-11-06T00:19:31.774Z,997.81
2017-11-06T00:20:31.802Z,997.81
2017-11-06T00:21:31.832Z,997.83
2017-11-06T00:22:31.861Z,997.85
2017-11-06T00:23:31.893Z,997.84
2017-11-06T00:24:31.919Z,997.85
2017-11-06T00:25:31.950Z,997.84
2017-11-06T00:26:31.980Z,997.82
2017-11-06T00:27:32.009Z,997.84
2017-11-06T00:28:32.037Z,997.86
2017-11-06T00:29:32.067Z,997.93
2017-11-06T00:30:32.097Z,997.93
2017-11-06T00:31:32.131Z,997.94
2017-11-06T00:32:32.156Z,997.97
2017-11-06T00:33:32.185Z,998.00
2017-11-06T00:34:32.215Z,998.01
2017-11-06T00:35:32.243Z,998.02
2017-11-06T00:36:32.273Z,997.98
2017-11-06T00:37:32.301Z,998.02
2017-11-06T00:38:32.335Z,998.01
2017-11-06T00:39:32.361Z,998.00
2017-11-06T00:40:32.395Z,998.02
2017-11-06T00:41:32.420Z,998.03
2017-11-06T00:42:32.449Z,998.03
2017-11-06T00:43:32.481Z,998.02
2017-11-06T00:44:32.507Z,998.00
2017-11-06T00:45:32.536Z,997.98
2017-11-06T00:46:32.567Z,998.00
2017-11-06T00:47:32.596Z,998.00
2017-11-06T00:48:32.624Z,997.99
2017-11-06T00:49:32.654Z,998.02
2017-11-06T00:50:32.733Z,998.04
2017-11-06T00:51:32.713Z,998.00
2017-11-06T00:52:32.740Z,998.00
2017-11-06T00:53:32.770Z,998.01
2017-11-06T00:54:32.799Z,998.00
2017-11-06T00:55:32.829Z,997.98
2017-11-06T00:56:32.858Z,997.96
2017-11-06T00:57:32.887Z,998.00
2017-11-06T00:58:32.916Z,997.93
2017-11-06T00:59:32.946Z,997.99
2017-11-06T01:00:33.024Z,998.08
2017-11-06T01:01:33.002Z,998.04
2017-11-06T01:02:33.032Z,998.05
2017-11-06T01:03:33.090Z,998.09
2017-11-06T01:04:33.090Z,998.10
2017-11-06T01:05:33.122Z,998.14
2017-11-06T01:06:33.149Z,998.14
2017-11-06T01:07:33.179Z,998.09
2017-11-06T01:08:33.207Z,998.17
2017-11-06T01:09:33.236Z,998.17
2017-11-06T01:10:33.316Z,998.15
2017-11-06T01:11:33.297Z,998.17
2017-11-06T01:12:33.323Z,998.18
2017-11-06T01:13:33.353Z,998.12
2017-11-06T01:14:33.383Z,998.13
2017-11-06T01:15:33.411Z,998.19
2017-11-06T01:16:33.439Z,998.18
2017-11-06T01:17:33.468Z,998.20
2017-11-06T01:18:33.498Z,998.19
2017-11-06T01:19:33.526Z,998.23
2017-11-06T01:20:33.605Z,998.24
2017-11-06T01:21:33.584Z,998.18
2017-11-06T01:22:33.613Z,998.21
2017-11-06T01:23:33.643Z,998.25
2017-11-06T01:24:33.671Z,998.24
2017-11-06T01:25:33.700Z,998.15
2017-11-06T01:26:33.730Z,998.24
2017-11-06T01:27:33.758Z,998.18
2017-11-06T01:28:33.788Z,998.22
2017-11-06T01:29:33.818Z,998.24
2017-11-06T01:30:33.851Z,998.21
2017-11-06T01:31:33.876Z,998.19
2017-11-06T01:32:33.904Z,998.24
2017-11-06T01:33:33.934Z,998.27
2017-11-06T01:34:33.967Z,998.25
2017-11-06T01:35:33.993Z,998.25
2017-11-06T01:36:34.021Z,998.19
2017-11-06T01:37:34.050Z,998.25
2017-11-06T01:38:34.079Z,998.33
2017-11-06T01:39:34.108Z,998.33
2017-11-06T01:40:34.137Z,998.31
2017-11-06T01:41:34.166Z,998.29
2017-11-06T01:42:34.195Z,998.32
2017-11-06T01:43:34.224Z,998.27
2017-11-06T01:44:34.253Z,998.35
2017-11-06T01:45:34.283Z,998.39
2017-11-06T01:46:34.312Z,998.44
2017-11-06T01:47:34.341Z,998.43
2017-11-06T01:48:34.370Z,998.42
2017-11-06T01:49:34.398Z,998.47
2017-11-06T01:50:34.428Z,998.46
2017-11-06T01:51:34.506Z,998.49
2017-11-06T01:52:34.485Z,998.51
2017-11-06T01:53:34.512Z,998.47
2017-11-06T01:54:34.543Z,998.45
2017-11-06T01:55:34.573Z,998.48
2017-11-06T01:56:34.601Z,998.50
2017-11-06T01:57:34.630Z,998.52
2017-11-06T01:58:34.659Z,998.52
2017-11-06T01:59:34.690Z,998.52
2017-11-06T02:00:34.716Z,998.54
2017-11-06T02:01:34.745Z,998.54
2017-11-06T02:02:34.773Z,998.57
2017-11-06T02:03:34.804Z,998.57
2017-11-06T02:04:34.830Z,998.54
2017-11-06T02:05:34.861Z,998.54
2017-11-06T02:06:34.891Z,998.53
2017-11-06T02:07:34.919Z,998.59
2017-11-06T02:08:34.947Z,998.57
2017-11-06T02:09:34.980Z,998.55
2017-11-06T02:10:35.005Z,998.49
2017-11-06T02:11:35.034Z,998.51
2017-11-06T02:12:35.063Z,998.54
2017-11-06T02:13:35.091Z,998.51
2017-11-06T02:14:35.120Z,998.53
2017-11-06T02:15:35.152Z,998.57
2017-11-06T02:16:35.179Z,998.59
2017-11-06T02:17:35.257Z,998.59
2017-11-06T02:18:35.236Z,998.65
2017-11-06T02:19:35.265Z,998.65
2017-11-06T02:20:35.313Z,998.59
2017-11-06T02:21:35.321Z,998.60
2017-11-06T02:22:35.355Z,998.60
2017-11-06T02:23:35.381Z,998.60
2017-11-06T02:24:35.408Z,998.56
2017-11-06T02:25:35.438Z,998.69
2017-11-06T02:26:35.467Z,998.66
2017-11-06T02:27:35.498Z,998.66
2017-11-06T02:28:35.523Z,998.83
2017-11-06T02:29:35.552Z,998.75
2017-11-06T02:30:35.580Z,998.73
2017-11-06T02:31:35.610Z,998.72
2017-11-06T02:32:35.638Z,998.72
2017-11-06T02:33:35.668Z,998.68
2017-11-06T02:34:35.696Z,998.75
2017-11-06T02:35:35.726Z,998.71
2017-11-06T02:36:35.754Z,998.69
2017-11-06T02:37:35.780Z,998.75
2017-11-06T02:38:35.810Z,998.74
2017-11-06T02:39:35.839Z,998.73
2017-11-06T02:40:35.867Z,998.76
2017-11-06T02:41:35.897Z,998.74
2017-11-06T02:42:35.925Z,998.76
2017-11-06T02:43:35.954Z,998.75
2017-11-06T02:44:35.983Z,998.74
2017-11-06T02:45:36.012Z,998.75
2017-11-06T02:46:36.040Z,998.77
2017-11-06T02:47:36.071Z,998.77
2017-11-06T02:48:36.096Z,998.76
2017-11-06T02:49:36.126Z,998.76
2017-11-06T02:50:36.154Z,998.74
2017-11-06T02:51:36.183Z,998.76
2017-11-06T02:52:36.210Z,998.75
2017-11-06T02:53:36.239Z,998.77
2017-11-06T02:54:36.270Z,998.74
2017-11-06T02:55:36.299Z,998.73
2017-11-06T02:56:36.326Z,998.72
2017-11-06T02:57:36.356Z,998.75
2017-11-06T02:58:36.384Z,998.70
2017-11-06T02:59:36.464Z,998.75
2017-11-06T03:00:36.443Z,998.76
2017-11-06T03:01:36.470Z,998.77
2017-11-06T03:02:36.499Z,998.70
2017-11-06T03:03:36.527Z,998.80
2017-11-06T03:04:36.557Z,998.78
2017-11-06T03:05:36.586Z,998.81
2017-11-06T03:06:36.616Z,998.78
2017-11-06T03:07:36.643Z,998.79
2017-11-06T03:08:36.671Z,998.79
2017-11-06T03:09:36.701Z,998.78
2017-11-06T03:10:36.730Z,998.79
2017-11-06T03:11:36.759Z,998.79
2017-11-06T03:12:36.787Z,998.74
2017-11-06T03:13:36.816Z,998.77
2017-11-06T03:14:36.845Z,998.84
2017-11-06T03:15:36.874Z,998.82
2017-11-06T03:16:36.902Z,998.81
2017-11-06T03:17:36.932Z,998.85
2017-11-06T03:18:36.961Z,998.83
2017-11-06T03:19:36.989Z,998.84
2017-11-06T03:20:37.022Z,998.83
2017-11-06T03:21:37.046Z,998.84
2017-11-06T03:22:37.077Z,998.82
2017-11-06T03:23:37.104Z,998.80
2017-11-06T03:24:37.133Z,998.85
2017-11-06T03:25:37.169Z,998.84
2017-11-06T03:26:37.190Z,998.88
2017-11-06T03:27:37.220Z,998.91
2017-11-06T03:28:37.247Z,998.94
2017-11-06T03:29:37.277Z,998.94
2017-11-06T03:30:37.307Z,998.95
2017-11-06T03:31:37.333Z,998.98
2017-11-06T03:32:37.362Z,998.99
2017-11-06T03:33:37.391Z,999.01
2017-11-06T03:34:37.421Z,999.00
2017-11-06T03:35:37.449Z,999.02
2017-11-06T03:36:37.481Z,999.06
2017-11-06T03:37:37.507Z,999.06
2017-11-06T03:38:37.540Z,999.12
2017-11-06T03:39:37.565Z,999.17
2017-11-06T03:40:37.593Z,999.13
2017-11-06T03:41:37.671Z,999.16
2017-11-06T03:42:37.651Z,999.15
2017-11-06T03:43:37.679Z,999.17
2017-11-06T03:44:37.707Z,999.18
2017-11-06T03:45:37.738Z,999.23
2017-11-06T03:46:37.767Z,999.27
2017-11-06T03:47:37.794Z,999.24
2017-11-06T03:48:37.823Z,999.28
2017-11-06T03:49:37.852Z,999.24
2017-11-06T03:50:37.880Z,999.31
2017-11-06T03:51:37.910Z,999.30
2017-11-06T03:52:37.943Z,999.26
2017-11-06T03:53:37.968Z,999.27
2017-11-06T03:54:37.998Z,999.33
2017-11-06T03:55:38.026Z,999.32
2017-11-06T03:56:38.055Z,999.25
2017-11-06T03:57:38.083Z,999.33
2017-11-06T03:58:38.112Z,999.34
2017-11-06T03:59:38.141Z,999.35
2017-11-06T04:00:38.169Z,999.32
2017-11-06T04:01:38.198Z,999.29
2017-11-06T04:02:38.234Z,999.32
2017-11-06T04:03:38.257Z,999.32
2017-11-06T04:04:38.285Z,999.33
2017-11-06T04:05:38.315Z,999.37
2017-11-06T04:06:38.342Z,999.36
2017-11-06T04:07:38.372Z,999.42
2017-11-06T04:08:38.399Z,999.42
2017-11-06T04:09:38.428Z,999.43
2017-11-06T04:10:38.456Z,999.44
2017-11-06T04:11:38.485Z,999.44
2017-11-06T04:12:38.514Z,999.42
2017-11-06T04:13:38.549Z,999.48
2017-11-06T04:14:38.572Z,999.50
2017-11-06T04:15:38.601Z,999.47
2017-11-06T04:16:38.629Z,999.51
2017-11-06T04:17:38.658Z,999.49
2017-11-06T04:18:38.686Z,999.55
2017-11-06T04:19:38.714Z,999.49
2017-11-06T04:20:38.742Z,999.50
2017-11-06T04:21:38.773Z,999.52
2017-11-06T04:22:38.803Z,999.52
2017-11-06T04:23:38.836Z,999.50
2017-11-06T04:24:38.861Z,999.51
2017-11-06T04:25:38.886Z,999.53
2017-11-06T04:26:38.915Z,999.54
2017-11-06T04:27:38.945Z,999.53
2017-11-06T04:28:38.973Z,999.55
2017-11-06T04:29:39.001Z,999.55
2017-11-06T04:30:39.029Z,999.56
2017-11-06T04:31:39.059Z,999.58
2017-11-06T04:32:39.090Z,999.61
2017-11-06T04:33:39.167Z,999.55
2017-11-06T04:34:39.146Z,999.56
2017-11-06T04:35:39.175Z,999.52
2017-11-06T04:36:39.203Z,999.53
2017-11-06T04:37:39.232Z,999.53
2017-11-06T04:38:39.259Z,999.53
2017-11-06T04:39:39.290Z,999.56
2017-11-06T04:40:39.316Z,999.54
2017-11-06T04:41:39.346Z,999.57
2017-11-06T04:42:39.376Z,999.60
2017-11-06T04:43:39.407Z,999.62
2017-11-06T04:44:39.433Z,999.63
2017-11-06T04:45:39.463Z,999.65
2017-11-06T04:46:39.491Z,999.63
2017-11-06T04:47:39.521Z,999.68
2017-11-06T04:48:39.549Z,999.71
2017-11-06T04:49:39.577Z,999.68
2017-11-06T04:50:39.605Z,999.71
2017-11-06T04:51:39.635Z,999.70
2017-11-06T04:52:39.663Z,999.73
2017-11-06T04:53:39.693Z,999.71
2017-11-06T04:54:39.771Z,999.79
2017-11-06T04:55:39.751Z,999.83
2017-11-06T04:56:39.777Z,999.83
2017-11-06T04:57:39.808Z,999.84
2017-11-06T04:58:39.835Z,999.78
2017-11-06T04:59:39.866Z,999.85
2017-11-06T05:00:39.894Z,999.84
2017-11-06T05:01:39.921Z,999.86
2017-11-06T05:02:39.952Z,999.91
2017-11-06T05:03:39.980Z,999.86
2017-11-06T05:04:40.007Z,999.88
2017-11-06T05:05:40.037Z,999.84
2017-11-06T05:06:40.066Z,999.92
2017-11-06T05:07:40.095Z,999.92
2017-11-06T05:08:40.123Z,999.96
2017-11-06T05:09:40.151Z,999.98
2017-11-06T05:10:40.187Z,999.95
2017-11-06T05:11:40.209Z,999.99
2017-11-06T05:12:40.235Z,999.98
2017-11-06T05:13:40.266Z,1000.04
2017-11-06T05:14:40.344Z,1000.02
2017-11-06T05:15:40.324Z,1000.01
2017-11-06T05:16:40.357Z,1000.00
2017-11-06T05:17:40.379Z,999.96
2017-11-06T05:18:40.409Z,999.99
2017-11-06T05:19:40.438Z,999.95
2017-11-06T05:20:40.465Z,999.87
2017-11-06T05:21:40.493Z,999.93
2017-11-06T05:22:40.522Z,999.93
2017-11-06T05:23:40.551Z,999.92
2017-11-06T05:24:40.629Z,999.97
2017-11-06T05:25:40.607Z,1000.00
2017-11-06T05:26:40.636Z,999.96
2017-11-06T05:27:40.666Z,999.99
2017-11-06T05:28:40.694Z,999.99
2017-11-06T05:29:40.724Z,999.98
2017-11-06T05:30:40.752Z,1000.00
2017-11-06T05:31:40.781Z,1000.03
2017-11-06T05:32:40.808Z,999.96
2017-11-06T05:33:40.836Z,1000.02
2017-11-06T05:34:40.865Z,1000.07
2017-11-06T05:35:40.894Z,1000.06
2017-11-06T05:36:40.923Z,1000.06
2017-11-06T05:37:40.951Z,1000.03
2017-11-06T05:38:40.980Z,1000.03
2017-11-06T05:39:41.009Z,1000.08
2017-11-06T05:40:41.038Z,1000.05
2017-11-06T05:41:41.066Z,1000.10
2017-11-06T05:42:41.095Z,1000.05
2017-11-06T05:43:41.122Z,1000.07
2017-11-06T05:44:41.151Z,1000.05
2017-11-06T05:45:41.180Z,1000.05
2017-11-06T05:46:41.208Z,1000.04
2017-11-06T05:47:41.238Z,1000.03
2017-11-06T05:48:41.264Z,1000.03
2017-11-06T05:49:41.293Z,1000.07
2017-11-06T05:50:41.322Z,1000.04
2017-11-06T05:51:41.351Z,1000.09
2017-11-06T05:52:41.380Z,1000.10
2017-11-06T05:53:41.408Z,1000.10
2017-11-06T05:54:41.436Z,1000.10
2017-11-06T05:55:41.465Z,1000.13
2017-11-06T05:56:41.497Z,1000.10
2017-11-06T05:57:41.522Z,1000.16
2017-11-06T05:58:41.559Z,1000.15
2017-11-06T05:59:41.578Z,1000.15
2017-11-06T06:00:41.605Z,1000.12
2017-11-06T06:01:41.634Z,1000.19
2017-11-06T06:02:41.664Z,1000.21
2017-11-06T06:03:41.696Z,1000.24
2017-11-06T06:04:41.720Z,1000.30
2017-11-06T06:05:41.749Z,1000.27
2017-11-06T06:06:41.779Z,1000.31
2017-11-06T06:07:41.806Z,1000.32
2017-11-06T06:08:41.835Z,1000.30
2017-11-06T06:09:41.863Z,1000.34
2017-11-06T06:10:41.891Z,1000.28
2017-11-06T06:11:41.920Z,1000.31
2017-11-06T06:12:41.947Z,1000.30
2017-11-06T06:13:41.976Z,1000.31
2017-11-06T06:14:42.006Z,1000.34
2017-11-06T06:15:42.083Z,1000.30
2017-11-06T06:16:42.062Z,1000.34
2017-11-06T06:17:42.090Z,1000.35
2017-11-06T06:18:42.120Z,1000.39
2017-11-06T06:19:42.146Z,1000.35
2017-11-06T06:20:42.176Z,1000.33
2017-11-06T06:21:42.203Z,1000.41
2017-11-06T06:22:42.232Z,1000.38
2017-11-06T06:23:42.261Z,1000.43
2017-11-06T06:24:42.287Z,1000.46
2017-11-06T06:25:42.316Z,1000.48
2017-11-06T06:26:42.357Z,1000.47
2017-11-06T06:27:42.379Z,1000.51
2017-11-06T06:28:42.400Z,1000.51
2017-11-06T06:29:42.429Z,1000.50
2017-11-06T06:30:42.457Z,1000.50
2017-11-06T06:31:42.487Z,1000.59
2017-11-06T06:32:42.513Z,1000.58
2017-11-06T06:33:42.541Z,1000.58
2017-11-06T06:34:42.570Z,1000.64
2017-11-06T06:35:42.600Z,1000.66
2017-11-06T06:36:42.626Z,1000.69
2017-11-06T06:37:42.654Z,1000.74
2017-11-06T06:38:42.683Z,1000.77
2017-11-06T06:39:42.710Z,1000.75
2017-11-06T06:40:42.739Z,1000.75
2017-11-06T06:41:42.766Z,1000.76
2017-11-06T06:42:42.794Z,1000.77
2017-11-06T06:43:42.824Z,1000.75
2017-11-06T06:44:42.851Z,1000.77
2017-11-06T06:45:42.879Z,1000.79
2017-11-06T06:46:42.924Z,1000.84
2017-11-06T06:47:42.939Z,1000.83
2017-11-06T06:48:42.963Z,1000.87
2017-11-06T06:49:43.015Z,1000.86
2017-11-06T06:50:43.019Z,1000.92
2017-11-06T06:51:43.048Z,1000.86
2017-11-06T06:52:43.075Z,1000.87
2017-11-06T06:53:43.103Z,1000.95
2017-11-06T06:54:43.132Z,1000.96
2017-11-06T06:55:43.160Z,1000.98
2017-11-06T06:56:43.237Z,1001.00
2017-11-06T06:57:43.215Z,1001.02
2017-11-06T06:58:43.244Z,1001.00
2017-11-06T06:59:43.271Z,1001.02
2017-11-06T07:00:43.299Z,1001.03
2017-11-06T07:01:43.328Z,1001.00
2017-11-06T07:02:43.356Z,1001.01
2017-11-06T07:03:43.386Z,1001.04
2017-11-06T07:04:43.418Z,1001.01
2017-11-06T07:05:43.440Z,1001.11
2017-11-06T07:06:43.469Z,1001.03
2017-11-06T07:07:43.496Z,1001.03
2017-11-06T07:08:43.525Z,1001.05
2017-11-06T07:09:43.553Z,1001.04
2017-11-06T07:10:43.582Z,1001.02
2017-11-06T07:11:43.611Z,1000.98
2017-11-06T07:12:43.637Z,1001.02
2017-11-06T07:13:43.665Z,1000.99
2017-11-06T07:14:43.699Z,1001.06
2017-11-06T07:15:43.732Z,1001.08
2017-11-06T07:16:43.751Z,1001.09
2017-11-06T07:17:43.779Z,1001.09
2017-11-06T07:18:43.811Z,1001.13
2017-11-06T07:19:43.840Z,1001.09
2017-11-06T07:20:43.867Z,1001.11
2017-11-06T07:21:43.894Z,1001.09
2017-11-06T07:22:43.924Z,1001.15
2017-11-06T07:23:43.948Z,1001.16
2017-11-06T07:24:43.976Z,1001.15
2017-11-06T07:25:44.006Z,1001.17
2017-11-06T07:26:44.034Z,1001.20
2017-11-06T07:27:44.063Z,1001.20
2017-11-06T07:28:44.090Z,1001.20
2017-11-06T07:29:44.119Z,1001.33
2017-11-06T07:30:44.147Z,1001.34
2017-11-06T07:31:44.180Z,1001.34
2017-11-06T07:32:44.204Z,1001.38
2017-11-06T07:33:44.234Z,1001.38
2017-11-06T07:34:44.262Z,1001.37
2017-11-06T07:35:44.294Z,1001.39
2017-11-06T07:36:44.320Z,1001.38
2017-11-06T07:37:44.347Z,1001.40
2017-11-06T07:38:44.376Z,1001.37
2017-11-06T07:39:44.408Z,1001.42
2017-11-06T07:40:44.433Z,1001.43
2017-11-06T07:41:44.472Z,1001.47
2017-11-06T07:42:44.492Z,1001.47
2017-11-06T07:43:44.525Z,1001.49
2017-11-06T07:44:44.549Z,1001.53
2017-11-06T07:45:44.579Z,1001.52
2017-11-06T07:46:44.609Z,1001.56
2017-11-06T07:47:44.635Z,1001.62
2017-11-06T07:48:44.665Z,1001.64
2017-11-06T07:49:44.694Z,1001.66
2017-11-06T07:50:44.725Z,1001.62
2017-11-06T07:51:44.754Z,1001.68
2017-11-06T07:52:44.782Z,1001.64
2017-11-06T07:53:44.812Z,1001.70
2017-11-06T07:54:44.839Z,1001.71
2017-11-06T07:55:44.870Z,1001.72
2017-11-06T07:56:44.897Z,1001.73
2017-11-06T07:57:44.926Z,1001.76
2017-11-06T07:58:44.956Z,1001.75
2017-11-06T07:59:44.991Z,1001.78
2017-11-06T08:00:45.014Z,1001.76
2017-11-06T08:01:45.042Z,1001.77
2017-11-06T08:02:45.073Z,1001.69
2017-11-06T08:03:45.101Z,1001.75
2017-11-06T08:04:45.130Z,1001.80
2017-11-06T08:05:45.158Z,1001.78
2017-11-06T08:06:45.187Z,1001.75
2017-11-06T08:07:45.217Z,1001.84
2017-11-06T08:08:45.246Z,1001.86
2017-11-06T08:09:45.325Z,1001.86
2017-11-06T08:10:45.304Z,1001.89
2017-11-06T08:11:45.340Z,1001.86
2017-11-06T08:12:45.361Z,1001.89
2017-11-06T08:13:45.391Z,1001.87
2017-11-06T08:14:45.420Z,1001.88
2017-11-06T08:15:45.449Z,1001.85
2017-11-06T08:16:45.477Z,1001.89
2017-11-06T08:17:45.509Z,1001.89
2017-11-06T08:18:45.537Z,1001.89
2017-11-06T08:19:45.568Z,1001.93
2017-11-06T08:20:45.594Z,1001.97
2017-11-06T08:21:45.622Z,1001.94
2017-11-06T08:22:45.652Z,1001.98
2017-11-06T08:23:45.681Z,1002.02
2017-11-06T08:24:45.711Z,1001.99
2017-11-06T08:25:45.739Z,1001.99
2017-11-06T08:26:45.769Z,1002.01
2017-11-06T08:27:45.798Z,1002.02
2017-11-06T08:28:45.827Z,1001.97
2017-11-06T08:29:45.856Z,1001.98
2017-11-06T08:30:45.905Z,1001.94
2017-11-06T08:31:45.913Z,1001.98
2017-11-06T08:32:45.942Z,1001.94
2017-11-06T08:33:45.976Z,1001.96
2017-11-06T08:34:46.004Z,1001.97
2017-11-06T08:35:46.031Z,1002.00
2017-11-06T08:36:46.061Z,1001.99
2017-11-06T08:37:46.089Z,1002.03
2017-11-06T08:38:46.119Z,1002.05
2017-11-06T08:39:46.147Z,1002.06
2017-11-06T08:40:46.176Z,1002.06
2017-11-06T08:41:46.205Z,1002.06
2017-11-06T08:42:46.243Z,1002.09
2017-11-06T08:43:46.265Z,1002.12
2017-11-06T08:44:46.294Z,1002.09
2017-11-06T08:45:46.324Z,1002.13
2017-11-06T08:46:46.354Z,1002.13
2017-11-06T08:47:46.384Z,1002.06
2017-11-06T08:48:46.413Z,1002.10
2017-11-06T08:49:46.442Z,1002.05
2017-11-06T08:50:46.471Z,1002.07
2017-11-06T08:51:46.501Z,1002.09
2017-11-06T08:52:46.529Z,1002.14
2017-11-06T08:53:46.560Z,1002.15
2017-11-06T08:54:46.589Z,1002.13
2017-11-06T08:55:46.621Z,1002.14
2017-11-06T08:56:46.648Z,1002.14
2017-11-06T08:57:46.678Z,1002.17
2017-11-06T08:58:46.709Z,1002.15
2017-11-06T08:59:46.738Z,1002.20
2017-11-06T09:00:46.768Z,1002.16
2017-11-06T09:01:46.802Z,1002.20
2017-11-06T09:02:46.827Z,1002.20
2017-11-06T09:03:46.857Z,1002.25
2017-11-06T09:04:46.885Z,1002.19
2017-11-06T09:05:46.916Z,1002.24
2017-11-06T09:06:46.996Z,1002.30
2017-11-06T09:07:46.977Z,1002.29
2017-11-06T09:08:47.005Z,1002.29
2017-11-06T09:09:47.036Z,1002.20
2017-11-06T09:10:47.066Z,1002.18
2017-11-06T09:11:47.095Z,1002.14
2017-11-06T09:12:47.123Z,1002.12
2017-11-06T09:13:47.154Z,1002.17
2017-11-06T09:14:47.186Z,1002.20
2017-11-06T09:15:47.215Z,1002.24
2017-11-06T09:16:47.243Z,1002.23
2017-11-06T09:17:47.274Z,1002.24
2017-11-06T09:18:47.304Z,1002.26
2017-11-06T09:19:47.333Z,1002.32
2017-11-06T09:20:47.364Z,1002.26
2017-11-06T09:21:47.393Z,1002.29
2017-11-06T09:22:47.423Z,1002.35
2017-11-06T09:23:47.452Z,1002.58
2017-11-06T09:24:47.513Z,1002.55
2017-11-06T09:25:47.513Z,1002.43
2017-11-06T09:26:47.543Z,1002.94
2017-11-06T09:27:47.581Z,1002.46
2017-11-06T09:28:47.603Z,1002.76
2017-11-06T09:29:47.636Z,1002.86
2017-11-06T09:30:47.664Z,1002.94
2017-11-06T09:31:47.700Z,1002.65
2017-11-06T09:32:47.727Z,1002.42
2017-11-06T09:33:47.761Z,1002.40
2017-11-06T09:34:47.791Z,1002.47
2017-11-06T09:35:47.821Z,1002.39
2017-11-06T09:36:47.852Z,1002.36
2017-11-06T09:37:47.883Z,1002.45
2017-11-06T09:38:47.917Z,1002.47
2017-11-06T09:39:47.949Z,1002.45
2017-11-06T09:40:47.979Z,1002.56
2017-11-06T09:41:48.011Z,1002.68
2017-11-06T09:42:48.043Z,1002.55
2017-11-06T09:43:48.085Z,1002.58
2017-11-06T09:44:48.107Z,1002.72
2017-11-06T09:45:48.136Z,1002.55
2017-11-06T09:46:48.169Z,1002.59
2017-11-06T09:47:48.201Z,1002.58
2017-11-06T09:48:48.233Z,1003.06
2017-11-06T09:49:48.265Z,1003.49
2017-11-06T09:50:48.296Z,1002.70
2017-11-06T09:51:48.328Z,1002.59
2017-11-06T09:52:48.414Z,1002.59
2017-11-06T09:53:48.393Z,1002.55
2017-11-06T09:54:48.425Z,1002.60
2017-11-06T09:55:48.459Z,1002.68
2017-11-06T09:56:48.490Z,1002.95
2017-11-06T09:57:48.523Z,1002.70
2017-11-06T09:58:48.556Z,1002.73
2017-11-06T09:59:48.587Z,1002.79
2017-11-06T10:00:48.619Z,1002.78
2017-11-06T10:01:48.652Z,1002.78
2017-11-06T10:02:48.684Z,1002.79
2017-11-06T10:03:48.719Z,1003.26
2017-11-06T10:04:48.750Z,1002.81
2017-11-06T10:05:48.784Z,1002.75
2017-11-06T10:06:48.817Z,1002.76
2017-11-06T10:07:48.851Z,1003.83
2017-11-06T10:08:48.882Z,1002.90
2017-11-06T10:09:48.915Z,1003.82
2017-11-06T10:10:48.953Z,1003.13
2017-11-06T10:11:48.984Z,1002.86
2017-11-06T10:12:49.014Z,1002.75
2017-11-06T10:13:49.048Z,1002.70
2017-11-06T10:14:49.085Z,1002.62
2017-11-06T10:15:49.116Z,1002.69
2017-11-06T10:16:49.150Z,1002.71
2017-11-06T10:17:49.185Z,1002.75
2017-11-06T10:18:49.218Z,1002.75
2017-11-06T10:19:49.252Z,1002.76
2017-11-06T10:20:49.285Z,1002.70
2017-11-06T10:21:49.319Z,1002.70
2017-11-06T10:22:49.352Z,1002.73
2017-11-06T10:23:49.384Z,1002.73
2017-11-06T10:24:49.419Z,1002.71
2017-11-06T10:25:49.451Z,1002.69
2017-11-06T10:26:49.483Z,1002.64
2017-11-06T10:27:49.517Z,1002.69
2017-11-06T10:28:49.549Z,1002.77
2017-11-06T10:29:49.580Z,1002.78
2017-11-06T10:30:49.615Z,1003.82
2017-11-06T10:31:49.647Z,1002.97
2017-11-06T10:32:49.679Z,1002.75
2017-11-06T10:33:49.711Z,1002.88
2017-11-06T10:34:49.744Z,1002.83
2017-11-06T10:35:49.785Z,1002.89
2017-11-06T10:36:49.813Z,1002.87
2017-11-06T10:37:49.844Z,1002.85
2017-11-06T10:38:49.875Z,1003.08
2017-11-06T10:39:49.909Z,1003.04
2017-11-06T10:40:49.941Z,1003.31
2017-11-06T10:41:49.975Z,1004.10
2017-11-06T10:42:50.010Z,1003.22
2017-11-06T10:43:50.043Z,1003.89
2017-11-06T10:44:50.076Z,1003.96
2017-11-06T10:45:50.111Z,1003.37
2017-11-06T10:46:50.147Z,1003.67
2017-11-06T10:47:50.185Z,1003.34
2017-11-06T10:48:50.218Z,1003.71
2017-11-06T10:49:50.305Z,1002.75
2017-11-06T10:50:50.292Z,1002.69
2017-11-06T10:51:50.330Z,1002.63
2017-11-06T10:52:50.364Z,1002.85
2017-11-06T10:53:50.402Z,1002.93
2017-11-06T10:54:50.454Z,1002.58
2017-11-06T10:55:50.477Z,1003.62
2017-11-06T10:56:50.515Z,1003.25
2017-11-06T10:57:50.552Z,1002.41
2017-11-06T10:58:50.590Z,1002.45
2017-11-06T10:59:50.678Z,1002.40
2017-11-06T11:00:50.668Z,1002.39
2017-11-06T11:01:50.701Z,1002.35
2017-11-06T11:02:50.744Z,1002.36
2017-11-06T11:03:50.781Z,1002.35
2017-11-06T11:04:50.913Z,1002.40
2017-11-06T11:05:50.850Z,1002.42
2017-11-06T11:06:50.886Z,1002.43
2017-11-06T11:07:50.932Z,1002.43
2017-11-06T11:08:50.957Z,1002.44
2017-11-06T11:09:50.993Z,1002.47
2017-11-06T11:10:51.030Z,1002.45
2017-11-06T11:11:51.064Z,1002.50
2017-11-06T11:12:51.104Z,1002.46
2017-11-06T11:13:51.135Z,1002.51
2017-11-06T11:14:51.170Z,1002.51
2017-11-06T11:15:51.206Z,1002.48
2017-11-06T11:16:51.240Z,1002.52
2017-11-06T11:17:51.292Z,1002.51
2017-11-06T11:18:51.309Z,1002.53
2017-11-06T11:19:51.344Z,1002.50
2017-11-06T11:20:51.378Z,1002.48
2017-11-06T11:21:51.413Z,1002.47
2017-11-06T11:22:51.448Z,1002.46
2017-11-06T11:23:51.483Z,1002.42
2017-11-06T11:24:51.514Z,1002.41
2017-11-06T11:25:51.550Z,1002.49
2017-11-06T11:26:51.584Z,1002.43
2017-11-06T11:27:51.618Z,1002.37
2017-11-06T11:28:51.651Z,1002.39
2017-11-06T11:29:51.683Z,1002.41
2017-11-06T11:30:51.718Z,1002.46
2017-11-06T11:31:51.752Z,1002.39
2017-11-06T11:32:51.783Z,1002.39
2017-11-06T11:33:51.817Z,1002.43
2017-11-06T11:34:51.849Z,1002.47
2017-11-06T11:35:51.883Z,1002.49
2017-11-06T11:36:51.916Z,1002.43
2017-11-06T11:37:51.948Z,1002.46
2017-11-06T11:38:51.981Z,1002.44
2017-11-06T11:39:52.015Z,1002.45
2017-11-06T11:40:52.043Z,1002.39
2017-11-06T11:41:52.076Z,1002.40
2017-11-06T11:42:52.109Z,1002.40
2017-11-06T11:43:52.142Z,1002.36
2017-11-06T11:44:52.173Z,1002.38
2017-11-06T11:45:52.205Z,1002.37
2017-11-06T11:46:52.245Z,1002.39
2017-11-06T11:47:52.269Z,1002.42
2017-11-06T11:48:52.301Z,1002.40
2017-11-06T11:49:52.334Z,1002.41
2017-11-06T11:50:52.365Z,1002.42
2017-11-06T11:51:52.398Z,1002.38
2017-11-06T11:52:52.429Z,1002.36
2017-11-06T11:53:52.464Z,1002.35
2017-11-06T11:54:52.492Z,1002.36
2017-11-06T11:55:52.525Z,1002.39
2017-11-06T11:56:52.555Z,1002.40
2017-11-06T11:57:52.587Z,1002.40
2017-11-06T11:58:52.619Z,1002.43
2017-11-06T11:59:52.652Z,1002.41
2017-11-06T12:00:52.683Z,1002.39
2017-11-06T12:01:52.714Z,1002.42
2017-11-06T12:02:52.746Z,1002.43
2017-11-06T12:03:52.777Z,1002.42
2017-11-06T12:04:52.810Z,1002.42
2017-11-06T12:05:52.840Z,1002.43
2017-11-06T12:06:52.873Z,1002.46
2017-11-06T12:07:52.909Z,1002.44
2017-11-06T12:08:52.934Z,1002.46
2017-11-06T12:09:52.968Z,1002.42
2017-11-06T12:10:53.000Z,1002.48
2017-11-06T12:11:53.031Z,1002.47
2017-11-06T12:12:53.063Z,1002.52
2017-11-06T12:13:53.094Z,1002.51
2017-11-06T12:14:53.127Z,1002.50
2017-11-06T12:15:53.160Z,1002.52